Terminal Aerodrome Forecast
Issued by NWS

Home | Current Version | Previous Version | Text Only | Print | Product List | Glossary Off
Versions: 1 2 3 4 5 6 7 8 9 10 11 12 13 14 15 16 17 18

000
FTUS43 KBIS 152327
TAFJMS
TAF
KJMS 152327Z 1600/1624 31016KT P6SM SCT020 BKN100
     FM160200 30012KT P6SM SCT150
     FM161500 22009KT P6SM FEW250
     FM162000 21014G22KT P6SM SCT200=

USA.gov is the U.S. government's official web portal to all federal, state and local government web resources and services.